Time;durP1;ratioP1;P1;durP2;ratioP2;P2;SDS_P1;SDS_P2;PMS_P1;PMS_P2;Temp;Humidity;BMP_temperature;BMP_pressure;BME280_temperature;BME280_humidity;BME280_pressure;Samples;Min_cycle;Max_cycle;Signal;HPM_P1;HPM_P2
2021/11/05 15:22:32;;;;;;;6.50;3.60;;;9.40;99.90;;;;;;2204258;48;22062;31
2021/11/05 15:34:46;;;;;;;8.70;4.43;;;8.70;99.90;;;;;;2605784;54;21036;31
2021/11/05 15:37:18;;;;;;;8.10;5.80;;;8.60;99.90;;;;;;2606650;46;20081;31
2021/11/05 15:39:51;;;;;;;8.20;4.90;;;8.60;99.90;;;;;;2607009;46;20026;31
2021/11/05 15:42:41;;;;;;;5.22;3.80;;;8.50;99.90;;;;;;2606555;46;20026;31
2021/11/05 15:45:13;;;;;;;8.57;4.45;;;8.50;99.90;;;;;;2607039;46;20827;31
2021/11/05 15:51:15;;;;;;;8.98;4.63;;;8.40;99.90;;;;;;2606903;54;20026;31
2021/11/05 15:53:47;;;;;;;6.05;4.75;;;8.30;99.90;;;;;;2620448;38;21517;31
2021/11/05 15:56:41;;;;;;;6.15;4.63;;;8.30;99.90;;;;;;2606316;54;20976;31
2021/11/05 15:59:16;;;;;;;5.97;4.40;;;8.30;99.90;;;;;;2606451;46;21252;31
2021/11/05 16:04:39;;;;;;;6.80;4.60;;;8.30;99.90;;;;;;2606640;54;20915;31
2021/11/05 16:07:15;;;;;;;8.05;4.80;;;8.30;99.90;;;;;;2606464;54;20073;31
2021/11/05 16:10:21;;;;;;;10.37;6.37;;;8.20;99.90;;;;;;2606974;46;20085;31
2021/11/05 16:12:59;;;;;;;8.40;5.20;;;8.20;99.90;;;;;;2606399;54;20777;31
2021/11/05 16:18:28;;;;;;;10.43;6.47;;;8.20;99.90;;;;;;2605680;54;21130;31
2021/11/05 16:21:44;;;;;;;14.90;8.85;;;8.20;99.90;;;;;;2658480;38;22171;31
2021/11/05 16:24:29;;;;;;;13.27;8.97;;;8.10;99.90;;;;;;2606976;46;20049;31
2021/11/05 16:27:06;;;;;;;14.07;9.90;;;8.10;99.90;;;;;;2606980;46;20926;31
2021/11/05 16:29:42;;;;;;;18.43;10.53;;;8.10;99.90;;;;;;2605966;46;20053;31
2021/11/05 16:32:22;;;;;;;21.95;13.00;;;8.10;99.90;;;;;;2602508;54;21125;31
2021/11/05 16:34:54;;;;;;;17.17;10.63;;;8.10;99.90;;;;;;2603211;46;20026;31
2021/11/05 16:37:28;;;;;;;12.02;7.70;;;8.10;99.90;;;;;;2602007;54;20030;31
2021/11/05 16:40:03;;;;;;;8.87;6.00;;;8.10;99.90;;;;;;2602547;46;20027;31
2021/11/05 16:42:39;;;;;;;9.43;6.30;;;8.10;99.90;;;;;;2602577;54;20262;31
2021/11/05 16:45:20;;;;;;;8.47;5.20;;;8.10;99.90;;;;;;2603144;46;20042;31
2021/11/05 16:48:13;;;;;;;10.90;6.35;;;8.10;99.90;;;;;;2603224;46;20046;31
2021/11/05 16:51:13;;;;;;;9.70;5.53;;;8.10;99.90;;;;;;2603056;46;20906;31
2021/11/05 16:53:46;;;;;;;9.77;6.60;;;8.10;99.90;;;;;;2603205;46;20045;31
2021/11/05 16:56:25;;;;;;;11.50;8.30;;;8.10;99.90;;;;;;2602553;54;20276;31
2021/11/05 16:59:04;;;;;;;16.02;9.38;;;8.10;99.90;;;;;;2603247;46;20026;31
2021/11/05 17:01:41;;;;;;;14.07;8.87;;;8.10;99.90;;;;;;2602460;46;20916;31
2021/11/05 17:04:15;;;;;;;13.60;9.13;;;8.00;99.90;;;;;;2602700;54;20113;31
2021/11/05 17:06:57;;;;;;;12.02;7.95;;;8.00;99.90;;;;;;2603249;46;20896;31
2021/11/05 17:09:31;;;;;;;17.85;9.75;;;8.00;99.90;;;;;;2603199;46;20035;31
2021/11/05 17:12:19;;;;;;;;;;;8.10;99.90;;;;;;2603500;46;20036;31
2021/11/05 17:15:18;;;;;;;10.35;7.20;;;8.20;99.90;;;;;;2603222;46;19939;31
2021/11/05 17:21:04;;;;;;;19.23;9.67;;;8.20;99.90;;;;;;2603238;46;20939;31
2021/11/05 17:23:37;;;;;;;12.18;7.35;;;8.30;99.90;;;;;;2603195;46;20350;31
2021/11/05 17:26:08;;;;;;;13.10;8.10;;;8.30;99.90;;;;;;2603156;46;20089;31
2021/11/05 17:28:53;;;;;;;15.15;8.90;;;8.30;99.90;;;;;;2602494;54;20054;31
2021/11/05 17:31:37;;;;;;;14.80;9.40;;;8.30;99.90;;;;;;2602423;46;20035;31
2021/11/05 17:34:25;;;;;;;15.43;8.67;;;8.30;99.90;;;;;;2601732;54;20037;31
2021/11/05 17:37:01;;;;;;;14.80;8.83;;;8.40;99.90;;;;;;2601938;54;20274;31
2021/11/05 17:39:35;;;;;;;13.50;9.15;;;8.30;99.90;;;;;;2602449;54;20243;31
2021/11/05 17:42:07;;;;;;;14.23;8.82;;;8.40;99.90;;;;;;2602172;54;20029;31
2021/11/05 17:44:43;;;;;;;13.50;10.10;;;8.30;99.90;;;;;;2606593;39;20281;31
2021/11/05 17:47:26;;;;;;;12.55;8.40;;;8.40;99.90;;;;;;2629074;39;20326;31
2021/11/05 17:50:06;;;;;;;12.60;8.50;;;8.40;99.90;;;;;;2602446;54;20069;31
2021/11/05 17:52:41;;;;;;;14.10;8.60;;;8.40;99.90;;;;;;2602433;46;21131;31
2021/11/05 17:55:13;;;;;;;11.90;8.52;;;8.30;99.90;;;;;;2602957;46;20054;31
2021/11/05 17:58:10;;;;;;;13.43;9.20;;;8.40;99.90;;;;;;2602981;46;20042;31
2021/11/05 18:01:03;;;;;;;11.10;8.70;;;8.40;99.90;;;;;;2655806;31;21300;31
2021/11/05 18:03:38;;;;;;;14.60;9.90;;;8.40;99.90;;;;;;2602948;46;20054;31
2021/11/05 18:06:34;;;;;;;17.40;11.85;;;8.40;99.90;;;;;;2603093;46;21539;31
2021/11/05 18:09:07;;;;;;;13.38;9.43;;;8.40;99.90;;;;;;2602397;54;20033;31
2021/11/05 18:11:42;;;;;;;12.55;10.00;;;8.40;99.90;;;;;;2602986;46;20092;31
2021/11/05 18:14:16;;;;;;;11.63;9.67;;;8.40;99.90;;;;;;2602444;54;20034;31
2021/11/05 18:16:49;;;;;;;12.95;10.52;;;8.40;99.90;;;;;;2602665;54;20920;31
2021/11/05 18:19:24;;;;;;;10.93;8.52;;;8.40;99.90;;;;;;2602506;54;20042;31
2021/11/05 18:22:02;;;;;;;12.50;8.82;;;8.40;99.90;;;;;;2602621;54;20030;31
2021/11/05 18:24:39;;;;;;;12.10;9.52;;;8.40;99.90;;;;;;2603113;46;20026;31
2021/11/05 18:27:11;;;;;;;12.00;9.23;;;8.40;99.90;;;;;;2603110;46;20066;31
2021/11/05 18:29:46;;;;;;;12.83;10.23;;;8.40;99.90;;;;;;2603108;46;20034;31
2021/11/05 18:32:20;;;;;;;11.90;9.80;;;8.40;99.90;;;;;;2602302;54;20903;31
2021/11/05 18:34:54;;;;;;;16.63;10.10;;;8.40;99.90;;;;;;2603090;46;20072;31
2021/11/05 18:37:28;;;;;;;13.10;9.45;;;8.40;99.90;;;;;;2602540;54;20057;31
2021/11/05 18:40:00;;;;;;;12.27;10.38;;;8.40;99.90;;;;;;2602966;46;20037;31
2021/11/05 18:42:36;;;;;;;14.57;10.88;;;8.40;99.90;;;;;;2602583;54;20057;31
2021/11/05 18:45:15;;;;;;;14.55;9.77;;;8.40;99.90;;;;;;2603046;46;20037;31
2021/11/05 18:47:48;;;;;;;12.45;10.27;;;8.30;99.90;;;;;;2603058;46;20857;31
2021/11/05 18:50:20;;;;;;;12.70;10.05;;;8.30;99.90;;;;;;2701465;39;21555;31
2021/11/05 18:52:51;;;;;;;17.55;11.23;;;8.30;99.90;;;;;;2602870;46;20914;31
2021/11/05 18:55:24;;;;;;;16.45;11.60;;;8.30;99.90;;;;;;2701448;39;21588;31
2021/11/05 18:57:59;;;;;;;14.27;11.05;;;8.30;99.90;;;;;;2603043;46;20030;31
2021/11/05 19:00:36;;;;;;;12.95;10.45;;;8.30;99.90;;;;;;2602925;46;20030;31
2021/11/05 19:03:14;;;;;;;14.32;11.75;;;8.30;99.90;;;;;;2602997;46;20037;31
2021/11/05 19:05:47;;;;;;;16.02;11.10;;;8.20;99.90;;;;;;2602532;54;20812;31
2021/11/05 19:08:19;;;;;;;13.23;10.50;;;8.20;99.90;;;;;;2602378;46;20869;31
2021/11/05 19:10:56;;;;;;;13.48;9.95;;;8.20;99.90;;;;;;2602969;46;20250;31
2021/11/05 19:13:29;;;;;;;12.38;10.38;;;8.10;99.90;;;;;;2602363;54;20032;31
2021/11/05 19:16:07;;;;;;;12.05;10.30;;;8.20;99.90;;;;;;2603013;47;20839;31
2021/11/05 19:18:40;;;;;;;15.55;11.95;;;8.10;99.90;;;;;;2601718;54;20061;31
2021/11/05 19:21:13;;;;;;;16.75;12.45;;;8.10;99.90;;;;;;2602936;47;20030;31
2021/11/05 19:23:46;;;;;;;18.55;13.90;;;8.10;99.90;;;;;;2602461;54;20859;31
2021/11/05 19:26:21;;;;;;;20.25;13.00;;;8.00;99.90;;;;;;2602276;47;20022;31
2021/11/05 19:28:52;;;;;;;15.95;12.27;;;8.00;99.90;;;;;;2602858;47;20948;31
2021/11/05 19:31:32;;;;;;;20.20;14.45;;;8.10;99.90;;;;;;2602282;54;20034;31
2021/11/05 19:34:06;;;;;;;18.35;14.60;;;8.00;99.90;;;;;;2602320;47;20870;31
2021/11/05 19:36:41;;;;;;;19.80;14.23;;;8.00;99.90;;;;;;2602888;47;20175;31
2021/11/05 19:39:13;;;;;;;18.98;14.18;;;8.00;99.90;;;;;;2602762;47;20998;31
2021/11/05 19:41:45;;;;;;;15.50;13.32;;;8.10;99.90;;;;;;2602861;47;20042;31
2021/11/05 19:44:17;;;;;;;14.73;12.65;;;8.00;99.90;;;;;;2602604;47;20098;31
2021/11/05 19:46:53;;;;;;;16.83;13.43;;;8.00;99.90;;;;;;2602185;47;20022;31
2021/11/05 19:49:37;;;;;;;14.30;11.50;;;8.00;99.90;;;;;;2602867;47;20902;31
2021/11/05 19:52:15;;;;;;;15.60;11.50;;;8.00;99.90;;;;;;2602787;47;21351;31
2021/11/05 19:54:50;;;;;;;13.30;11.30;;;8.10;99.90;;;;;;2602835;47;20823;31
2021/11/05 19:57:49;;;;;;;20.43;12.67;;;8.00;99.90;;;;;;2602741;47;20019;31
2021/11/05 20:00:30;;;;;;;14.15;10.80;;;8.00;99.90;;;;;;2602054;54;20243;31
2021/11/05 20:03:03;;;;;;;12.65;10.90;;;8.00;99.90;;;;;;2602265;54;20890;31
2021/11/05 20:05:35;;;;;;;12.80;11.02;;;8.00;99.90;;;;;;2602660;54;20028;31
2021/11/05 20:08:12;;;;;;;13.25;11.18;;;8.00;99.90;;;;;;2603556;46;20089;31
2021/11/05 20:10:46;;;;;;;15.00;10.97;;;8.00;99.90;;;;;;2602999;54;20038;31
2021/11/05 20:13:18;;;;;;;14.50;12.23;;;8.00;99.90;;;;;;2603560;46;20268;31
2021/11/05 20:15:49;;;;;;;14.83;12.23;;;8.00;99.90;;;;;;2602939;54;20239;31
2021/11/05 20:18:21;;;;;;;16.20;12.20;;;8.00;99.90;;;;;;2602959;46;20928;31
2021/11/05 20:20:56;;;;;;;15.15;11.43;;;7.90;99.90;;;;;;2602879;46;20988;31
2021/11/05 20:23:31;;;;;;;15.35;12.70;;;7.90;99.90;;;;;;2603075;54;20042;31
2021/11/05 20:26:14;;;;;;;17.35;13.10;;;7.90;99.90;;;;;;2603102;54;20907;31
2021/11/05 20:28:48;;;;;;;15.05;12.43;;;7.90;99.90;;;;;;2603529;46;20031;31
2021/11/05 20:31:20;;;;;;;15.65;12.45;;;7.90;99.90;;;;;;2603392;46;20085;31
2021/11/05 20:33:54;;;;;;;14.27;12.13;;;7.90;99.90;;;;;;2602884;54;20897;31
2021/11/05 20:36:26;;;;;;;15.48;12.52;;;7.90;99.90;;;;;;2602955;54;20773;31
2021/11/05 20:38:59;;;;;;;17.63;12.60;;;7.90;99.90;;;;;;2603458;46;20034;31
2021/11/05 20:41:31;;;;;;;70.18;53.42;;;7.80;99.90;;;;;;2603468;46;20867;31
2021/11/05 20:44:05;;;;;;;32.30;26.13;;;7.90;99.90;;;;;;2603460;46;20030;31
2021/11/05 20:46:39;;;;;;;19.60;15.70;;;7.90;99.90;;;;;;2603480;46;20026;31
2021/11/05 20:49:11;;;;;;;16.60;12.80;;;8.00;99.90;;;;;;2603467;46;20982;31
2021/11/05 20:51:48;;;;;;;16.17;13.45;;;8.00;99.90;;;;;;2602823;46;20089;31
2021/11/05 20:54:20;;;;;;;20.25;13.70;;;8.00;99.90;;;;;;2603165;54;20097;31
2021/11/05 20:56:52;;;;;;;18.50;13.67;;;8.00;99.90;;;;;;2603399;46;20919;31
2021/11/05 20:59:32;;;;;;;15.50;13.18;;;8.00;99.90;;;;;;2603403;46;20921;31
2021/11/05 21:02:04;;;;;;;16.70;13.03;;;8.00;99.90;;;;;;2602823;54;20034;31
2021/11/05 21:04:40;;;;;;;15.10;12.13;;;8.00;99.90;;;;;;2602714;54;20917;31
2021/11/05 21:07:14;;;;;;;15.52;12.70;;;8.00;99.90;;;;;;2602978;54;20779;31
2021/11/05 21:09:51;;;;;;;15.13;11.85;;;8.10;99.90;;;;;;2602773;46;20081;31
2021/11/05 21:12:27;;;;;;;;;;;8.00;99.90;;;;;;2603608;46;20888;31
2021/11/05 21:15:00;;;;;;;13.75;10.85;;;8.10;99.90;;;;;;2602827;46;19954;31
2021/11/05 21:17:35;;;;;;;17.05;11.75;;;8.10;99.90;;;;;;2602647;54;20838;31
2021/11/05 21:20:12;;;;;;;16.38;11.50;;;8.10;99.90;;;;;;2603333;46;20043;31
2021/11/05 21:22:47;;;;;;;16.75;12.70;;;8.10;99.90;;;;;;2602822;54;20960;31
2021/11/05 21:25:20;;;;;;;16.67;12.45;;;8.10;99.90;;;;;;2602299;54;20026;31
2021/11/05 21:27:54;;;;;;;14.90;11.75;;;8.10;99.90;;;;;;2602751;46;20139;31
2021/11/05 21:30:30;;;;;;;14.20;11.67;;;8.10;99.90;;;;;;2602868;46;20949;31
2021/11/05 21:33:07;;;;;;;13.45;10.50;;;8.10;99.90;;;;;;2602728;54;20253;31
2021/11/05 21:35:41;;;;;;;14.30;10.98;;;8.00;99.90;;;;;;2603323;46;20861;31
2021/11/05 21:38:20;;;;;;;15.70;10.63;;;8.00;99.90;;;;;;2602692;54;20030;31
2021/11/05 21:40:58;;;;;;;12.40;9.65;;;8.00;99.90;;;;;;2603219;46;20273;31
2021/11/05 21:43:30;;;;;;;13.35;10.50;;;8.00;99.90;;;;;;2603268;46;20719;31
2021/11/05 21:46:02;;;;;;;12.38;10.48;;;8.00;99.90;;;;;;2603325;46;20861;31
2021/11/05 21:48:38;;;;;;;12.25;10.93;;;8.00;99.90;;;;;;2602691;46;20038;31
2021/11/05 21:51:12;;;;;;;12.55;10.70;;;8.00;99.90;;;;;;2603188;46;20888;31
2021/11/05 21:53:44;;;;;;;13.70;11.45;;;7.90;99.90;;;;;;2602601;54;20037;31
2021/11/05 21:56:15;;;;;;;13.07;9.70;;;7.90;99.90;;;;;;2602707;54;20151;31
2021/11/05 21:58:47;;;;;;;11.80;10.18;;;7.90;99.90;;;;;;2602765;54;20872;31
2021/11/05 22:01:21;;;;;;;14.85;10.00;;;7.80;99.90;;;;;;2603133;46;20030;31
2021/11/05 22:03:55;;;;;;;12.85;10.70;;;7.80;99.90;;;;;;2603250;46;20821;31
2021/11/05 22:06:27;;;;;;;13.50;10.60;;;7.80;99.90;;;;;;2603255;46;20030;31
2021/11/05 22:08:59;;;;;;;14.35;11.40;;;7.80;99.90;;;;;;2602664;54;20834;31
2021/11/05 22:11:30;;;;;;;13.65;11.57;;;7.70;99.90;;;;;;2603213;46;20132;31
2021/11/05 22:14:02;;;;;;;13.43;10.90;;;7.80;99.90;;;;;;2602592;54;20031;31
2021/11/05 22:16:34;;;;;;;16.55;11.90;;;7.80;99.90;;;;;;2602770;54;20142;31
2021/11/05 22:19:05;;;;;;;15.63;12.67;;;7.80;99.90;;;;;;2603190;46;20060;31
2021/11/05 22:21:38;;;;;;;14.65;10.88;;;7.80;99.90;;;;;;2603026;46;20309;31
2021/11/05 22:24:10;;;;;;;13.63;9.57;;;7.70;99.90;;;;;;2602588;54;20031;31
2021/11/05 22:26:42;;;;;;;13.30;9.93;;;7.80;99.90;;;;;;2603183;46;20816;31
2021/11/05 22:29:15;;;;;;;14.53;10.00;;;7.80;99.90;;;;;;2602500;54;20878;31
2021/11/05 22:31:45;;;;;;;14.30;10.68;;;7.80;99.90;;;;;;2603199;46;20925;31
2021/11/05 22:34:18;;;;;;;12.40;9.95;;;7.80;99.90;;;;;;2603106;46;20026;31
2021/11/05 22:36:50;;;;;;;12.70;10.00;;;7.80;99.90;;;;;;2603179;46;20037;31
2021/11/05 22:39:21;;;;;;;14.57;10.93;;;7.80;99.90;;;;;;2603025;46;20915;31
2021/11/05 22:41:53;;;;;;;13.60;10.30;;;7.80;99.90;;;;;;2602546;54;20920;31
2021/11/05 22:44:29;;;;;;;;;;;7.90;99.90;;;;;;2602654;54;20030;31
2021/11/05 22:47:02;;;;;;;11.77;8.68;;;7.90;99.90;;;;;;2602514;54;20806;31
2021/11/05 22:49:38;;;;;;;13.02;9.45;;;7.90;99.90;;;;;;2602459;46;20048;31
2021/11/05 22:52:10;;;;;;;15.70;10.50;;;7.80;99.90;;;;;;2602237;54;20040;31
2021/11/05 22:54:43;;;;;;;12.32;10.30;;;7.80;99.90;;;;;;2602996;46;20039;31
2021/11/05 22:57:14;;;;;;;16.63;9.80;;;7.80;99.90;;;;;;2603094;46;20030;31
2021/11/05 22:59:50;;;;;;;13.20;11.10;;;7.90;99.90;;;;;;2602394;46;20984;31
2021/11/05 23:02:27;;;;;;;15.73;10.50;;;7.90;99.90;;;;;;2603194;46;20026;31
2021/11/05 23:05:00;;;;;;;14.33;9.87;;;7.90;99.90;;;;;;2602382;54;20270;31
2021/11/05 23:07:36;;;;;;;13.00;10.65;;;7.90;99.90;;;;;;2602417;46;20939;31
2021/11/05 23:10:08;;;;;;;13.93;9.55;;;7.90;99.90;;;;;;2601568;54;20085;31
2021/11/05 23:12:44;;;;;;;18.30;12.48;;;8.00;99.90;;;;;;2602972;46;20036;31
2021/11/05 23:15:16;;;;;;;14.05;10.60;;;7.90;99.90;;;;;;2602981;47;20751;31
2021/11/05 23:17:49;;;;;;;14.55;10.95;;;7.90;99.90;;;;;;2602960;47;20052;31
2021/11/05 23:20:20;;;;;;;14.27;9.87;;;7.90;99.90;;;;;;2602345;47;20866;31
2021/11/05 23:22:52;;;;;;;13.20;10.90;;;7.90;99.90;;;;;;2602438;54;20899;31
2021/11/05 23:25:29;;;;;;;14.35;10.95;;;7.90;99.90;;;;;;2602316;47;20765;31
2021/11/05 23:28:01;;;;;;;14.20;10.70;;;7.90;99.90;;;;;;2602948;47;20761;31
2021/11/05 23:30:33;;;;;;;14.48;11.35;;;7.90;99.90;;;;;;2602868;47;20852;31
2021/11/05 23:33:08;;;;;;;14.33;10.33;;;7.90;99.90;;;;;;2602846;47;20031;31
2021/11/05 23:35:41;;;;;;;13.73;11.25;;;7.90;99.90;;;;;;2602418;54;21171;31
2021/11/05 23:38:13;;;;;;;18.25;12.80;;;7.90;99.90;;;;;;2701045;39;22330;31
2021/11/05 23:40:44;;;;;;;15.63;12.70;;;7.80;99.90;;;;;;2603230;47;20906;31
2021/11/05 23:43:15;;;;;;;15.77;12.90;;;7.80;99.90;;;;;;2603081;46;20061;31
2021/11/05 23:45:48;;;;;;;14.57;12.05;;;7.80;99.90;;;;;;2603645;46;21199;31
2021/11/05 23:48:21;;;;;;;15.48;11.57;;;7.80;99.90;;;;;;2603117;54;20109;31
2021/11/05 23:50:58;;;;;;;12.05;9.23;;;7.80;99.90;;;;;;2603215;54;20038;31
2021/11/05 23:53:29;;;;;;;13.60;10.65;;;7.80;99.90;;;;;;2603044;46;20069;31
2021/11/05 23:56:02;;;;;;;11.65;9.00;;;7.80;99.90;;;;;;2603634;46;20613;31
2021/11/05 23:58:33;;;;;;;9.77;8.10;;;7.80;99.90;;;;;;2603082;54;20042;31
